Weather observations for the past three days for
Front Royal-warren County Airport
Imperial (Metric)
Date Time (edt) Wind (mph) Vis. (mi.) Weather Sky Cond. Temperature (ºF) Relative Humidity Wind Chill (°F) Heat Index (°F) Pressure Precipitation (in)
Air Dwpt 6 hour altimeter (in) sea level (mb) 1 hr 3 hr 6 hr
Max. Min.
10 15:55 E 3 10.00 Light Rain SCT025 SCT034 BKN085 64.6 62.1 92% 29.92 0.0 0.2
10 15:35 NW 3 10.00 Light Rain SCT016 BKN070 OVC080 62.4 58.5 87% 29.92 0.0 0.15
10 15:15 NW 17 G 28 5.00 Heavy Rain BKN075 OVC090 64.4 57.7 79% 29.92 0.0 0.04
10 14:55 W 3 10.00 Overcast SCT075 BKN090 OVC120 75.2 52.5 45% 78 29.9 0.0
10 14:35 S 3 10.00 Overcast SCT090 OVC120 76.1 51.4 42% 78 29.89 0.0
10 14:15 S 6 10.00 Partly Cloudy SCT090 SCT120 78.3 50.2 37% 79 29.9 0.0
10 13:55 SW 6 10.00 Fair CLR 77.7 49.5 80.1 60.3 37% 78 29.9 0.0
10 13:35 W 9 10.00 Fair CLR 77.5 47.8 35% 78 29.9 0.0
10 13:15 W 12 G 16 10.00 Fair CLR 79.7 50.9 37% 79 29.91 0.0
10 12:55 W 6 10.00 Fair CLR 77.4 51.3 40% 78 29.92 0.0
10 12:35 W 9 10.00 Fair CLR 78.3 51.8 40% 79 29.92 0.0
10 12:15 SW 5 G 21 10.00 Fair CLR 77 50.5 40% 78 29.93 0.0
10 11:55 W 7 10.00 Fair CLR 76.8 52.9 43% 78 29.93 0.0
10 11:35 W 5 10.00 Fair CLR 75.6 52.2 44% 78 29.93 0.0
10 11:15 W 8 10.00 Fair CLR 74.5 51.8 45% 29.93 0.0
10 10:55 W 3 10.00 Fair CLR 73.6 52 47% 29.93 0.0
10 10:35 S 6 10.00 Fair CLR 73.6 52.2 47% 29.93 0.0
10 10:15 S 8 10.00 Fair CLR 72.3 51.4 48% 29.92 0.0
10 09:55 SW 6 10.00 Fair CLR 70.5 49.8 48% 29.92 0.0
10 09:35 S 8 10.00 Fair CLR 68.7 49.6 51% 29.92 0.0
10 09:15 S 6 10.00 Fair CLR 66.2 49.8 56% 29.92 0.0
10 08:55 S 5 10.00 Fair CLR 64.6 49.1 57% 29.92 0.0
10 08:35 S 7 10.00 Fair CLR 62.6 48.9 61% 29.91 0.0
10 08:15 S 6 10.00 Fair CLR 61.3 48.4 63% 29.91 0.0
10 07:55 S 5 10.00 Fair CLR 60.1 48.2 60.1 49.6 65% 29.92 0.0
10 07:35 S 5 10.00 Fair CLR 58.6 47.8 68% 29.91 0.0
10 07:15 S 6 10.00 Fair CLR 57.4 46.8 68% 29.9 0.0
10 06:55 S 7 10.00 Fair CLR 55.6 46.8 72% 29.89 0.0
10 06:35 S 5 10.00 Fair CLR 53.1 46.6 79% 29.88 0.0
10 06:15 Calm 10.00 Fair CLR 52 46.6 82% 29.87 0.0
10 05:55 S 3 10.00 Fair CLR 52.7 46.8 80% 29.86 0.0
10 05:35 S 3 10.00 Fair CLR 53.6 46.8 78% 29.86 0.0
10 05:15 S 5 10.00 Fair CLR 52.2 47.3 84% 29.86 0.0
10 04:55 S 3 10.00 Fair CLR 53.6 47.3 79% 29.86 0.0
10 04:35 S 5 10.00 Fair CLR 54 47.7 79% 29.86 0.0
10 04:15 SW 6 10.00 Fair CLR 55.8 47.7 74% 29.85 0.0
10 03:55 S 5 10.00 Fair CLR 52 48.6 88% 29.85 0.0
10 03:35 S 3 10.00 Fair CLR 51.1 48.4 91% 29.85 0.0
10 03:15 Calm 10.00 Fair CLR 49.8 47.8 93% 29.84 0.0
10 02:55 S 3 10.00 Fair CLR 51.1 48.6 91% 29.84 0.0
10 02:35 S 3 10.00 Fair CLR 51.4 49.1 92% 29.84 0.0
10 02:15 Calm 10.00 Fair CLR 52.5 49.1 88% 29.84 0.0
10 01:55 Calm 10.00 Fair CLR 53.8 49.6 68.2 52.9 86% 29.84 0.0
10 01:35 S 6 10.00 Fair CLR 54.1 50 86% 29.84 0.0
10 01:15 S 3 10.00 Fair CLR 55 50 83% 29.84 0.0
10 00:55 S 7 10.00 Fair CLR 55.8 50.5 83% 29.84 0.0
10 00:35 S 5 10.00 Fair CLR 55.2 50.9 85% 29.84 0.0
10 00:15 S 3 10.00 Fair CLR 53.8 51.1 91% 29.84 0.0
09 23:55 Calm 10.00 Fair CLR 54 51.3 91% 29.84 0.0
09 23:35 Calm 10.00 Fair CLR 54.7 50.9 87% 29.84 0.0
09 23:15 Calm 10.00 Fair CLR 55.2 50.9 85% 29.84 0.0
09 22:55 Calm 10.00 Fair CLR 55.9 51.1 84% 29.83 0.0
09 22:35 SW 5 10.00 Fair CLR 57.9 51.3 79% 29.82 0.0
09 22:15 Calm 10.00 Fair CLR 57.6 52 82% 29.82 0.0
09 21:55 S 3 10.00 Fair CLR 58.5 51.8 79% 29.8 0.0
09 21:35 Calm 10.00 Fair CLR 59 50.5 74% 29.8 0.0
09 21:15 Calm 10.00 Fair CLR 61.3 50.7 68% 29.79 0.0
09 20:55 Calm 10.00 Fair CLR 63 50.5 64% 29.78 0.0
09 20:35 Calm 10.00 Fair CLR 64.8 50.2 59% 29.77 0.0
09 20:15 Calm 10.00 Fair CLR 67.1 50 54% 29.77 0.0
09 19:55 Calm 10.00 Fair CLR 68.7 51.3 72.9 68.5 54% 29.77 0.0
09 19:35 N 3 10.00 Fair CLR 69.8 50 50% 29.77 0.0
09 19:15 Calm 10.00 Fair CLR 71.1 50.5 48% 29.76 0.0
09 18:55 Calm 10.00 Fair CLR 71.6 48.6 44% 29.76 0.0
09 18:35 Calm 10.00 Partly Cloudy SCT085 SCT110 71.8 50.7 48% 29.76 0.0
09 18:15 SE 3 10.00 Mostly Cloudy SCT075 BKN085 BKN110 71.8 52.5 51% 29.76 0.0
09 17:55 SE 3 10.00 Overcast OVC095 71.1 51.8 51% 29.76 0.0
09 17:35 SE 6 10.00 Overcast BKN095 OVC110 71.8 52 50% 29.76 0.0
09 17:15 NE 3 10.00 Overcast SCT080 BKN095 OVC120 71.8 50.9 48% 29.75 0.0
09 16:55 Calm 10.00 Mostly Cloudy BKN095 BKN120 71.8 50 46% 29.75 0.0
09 16:35 E 3 10.00 Overcast OVC095 71.2 51.1 49% 29.75 0.0
09 16:15 Calm 10.00 Mostly Cloudy BKN095 70.3 50 49% 29.75 0.0
09 15:55 NW 3 10.00 Mostly Cloudy SCT060 BKN075 BKN085 70.5 48.9 46% 29.76 0.0
09 15:35 SW 3 10.00 Mostly Cloudy SCT060 SCT075 BKN095 70.7 49.8 48% 29.77 0.0
09 15:15 SE 5 10.00 Partly Cloudy SCT050 72 50.2 46% 29.77 0.0
09 14:55 E 5 10.00 Partly Cloudy SCT050 SCT055 70.3 49.8 48% 29.77 0.0
09 14:35 E 5 10.00 Partly Cloudy SCT050 69.3 48.7 48% 29.78 0.0
09 14:15 E 5 10.00 Fair CLR 68.7 48.9 49% 29.79 0.0
09 13:55 E 3 10.00 Fair CLR 69.6 49.8 70.2 58.1 50% 29.79 0.0
09 13:35 E 7 10.00 Partly Cloudy SCT042 SCT055 SCT120 68 49.5 52% 29.8 0.0
09 13:15 E 5 10.00 Light Rain SCT039 SCT046 OVC055 66.2 49.6 55% 29.82 0.0
09 12:55 E 3 10.00 Overcast BKN055 OVC090 67.1 48.2 51% 29.82 0.0
09 12:35 NE 3 10.00 Mostly Cloudy BKN090 68.5 46.8 46% 29.82 0.0
09 12:15 E 6 10.00 Partly Cloudy SCT090 68.5 47.8 48% 29.82 0.0
09 11:55 NE 6 10.00 Fair CLR 68.9 47.5 47% 29.8 0.0
09 11:35 Calm 10.00 Fair CLR 67.3 46.6 48% 29.81 0.0
09 11:15 E 6 10.00 Fair CLR 66.6 46.8 49% 29.82 0.0
09 10:55 SE 3 10.00 Fair CLR 66.2 46.4 49% 29.83 0.0
09 10:35 E 6 10.00 Fair CLR 64.6 45.5 50% 29.83 0.0
09 10:15 Calm 10.00 Fair CLR 62.2 45.1 54% 29.84 0.0
09 09:55 Calm 10.00 Fair CLR 61 45 56% 29.85 0.0
09 09:35 Calm 10.00 Partly Cloudy SCT110 60.3 43.5 54% 29.84 0.0
09 09:15 NE 5 7.00 Mostly Cloudy BKN110 59 43.7 57% 29.84 0.0
09 08:55 NE 3 10.00 Overcast OVC110 58.1 43.5 59% 29.84 0.0
09 08:35 Calm 10.00 Overcast OVC120 58.3 44.2 60% 29.84 0.0
09 08:15 Calm 10.00 Overcast OVC110 58.1 43.2 58% 29.84 0.0
09 07:55 S 3 10.00 Overcast OVC110 59 40.8 60.3 56.7 51% 29.83 0.0
09 07:35 SW 5 10.00 Overcast OVC120 59 39.7 49% 29.83 0.0
09 07:15 SW 5 10.00 Overcast OVC110 58.1 39.7 51% 29.83 0.0
09 06:55 S 3 10.00 Overcast OVC110 58.8 39.2 48% 29.83 0.0
09 06:35 S 3 10.00 Overcast OVC110 58.5 39 49% 29.83 0.0
09 06:15 S 5 10.00 Overcast OVC110 57.7 39.2 50% 29.83 0.0
09 05:55 S 5 10.00 Overcast OVC110 58.6 38.5 47% 29.83 0.0
09 05:35 SW 5 10.00 Overcast OVC110 58.3 38.3 48% 29.83 0.0
09 05:15 Calm 10.00 Overcast OVC110 57.7 38.7 49% 29.83 0.0
09 04:55 S 3 10.00 Overcast OVC110 57.9 38.3 48% 29.83 0.0
09 04:35 Calm 10.00 Overcast OVC110 57.2 39.2 51% 29.84 0.0
09 04:15 Calm 10.00 Overcast OVC110 56.7 39.6 53% 29.84 0.0
09 03:55 Calm 10.00 Overcast OVC110 57.6 39 50% 29.84 0.0
09 03:35 SW 5 10.00 Overcast OVC110 60.3 36.9 42% 29.84 0.0
09 03:15 SW 7 10.00 Overcast OVC110 59.5 37.4 44% 29.85 0.0
09 02:55 SW 6 10.00 Overcast OVC110 59.2 37.4 44% 29.85 0.0
09 02:35 SW 6 10.00 Overcast OVC110 59.2 37.6 45% 29.86 0.0
09 02:15 SW 6 10.00 Mostly Cloudy BKN120 59.4 37.9 45% 29.86 0.0
09 01:55 SW 6 10.00 Partly Cloudy SCT120 59.4 38.3 66.4 55.2 46% 29.86 0.0
09 01:35 SW 6 10.00 Mostly Cloudy BKN120 59.9 38.3 45% 29.86 0.0
09 01:15 SW 6 10.00 Partly Cloudy SCT120 60.1 38.7 45% 29.86 0.0
09 00:55 SW 6 10.00 Partly Cloudy SCT120 60.6 38.7 44% 29.86 0.0
09 00:35 SW 6 10.00 Partly Cloudy SCT120 60.8 38.8 44% 29.86 0.0
09 00:15 SW 5 10.00 Fair CLR 60.3 39.4 46% 29.86 0.0
08 23:55 SW 6 10.00 Fair CLR 59.4 40.1 49% 29.86 0.0
08 23:35 SW 3 10.00 Fair CLR 56.7 40.5 55% 29.86 0.0
08 23:15 Calm 10.00 Fair CLR 56.8 39.9 53% 29.86 0.0
08 22:55 Calm 10.00 Fair CLR 59.7 39.2 47% 29.87 0.0
08 22:35 SW 3 10.00 Fair CLR 60.4 39 45% 29.87 0.0
08 22:15 SW 3 10.00 Fair CLR 60.3 38.8 45% 29.87 0.0
08 21:55 S 3 10.00 Partly Cloudy SCT100 61.2 38.8 44% 29.86 0.0
08 21:35 S 3 10.00 Fair CLR 61.5 38.8 43% 29.86 0.0
08 21:15 S 3 10.00 Fair CLR 62.8 38.7 41% 29.86 0.0
08 20:55 S 5 10.00 Partly Cloudy SCT110 63.1 39.2 41% 29.86 0.0
08 20:35 S 5 10.00 Partly Cloudy SCT110 63.9 39 40% 29.85 0.0
08 20:15 S 3 10.00 Partly Cloudy SCT110 64.9 39 39% 29.85 0.0
08 19:55 Calm 10.00 Overcast OVC095 66.9 37.2 73.4 66.6 34% 29.84 0.0
08 19:35 Calm 10.00 Overcast OVC095 67.6 35.8 31% 29.84 0.0
08 19:15 Calm 10.00 Overcast OVC095 68.2 35.6 30% 29.84 0.0
08 18:55 SW 5 10.00 Overcast OVC095 68.5 37.2 32% 29.84 0.0
08 18:35 Calm 10.00 Overcast OVC095 69.4 35.6 29% 29.84 0.0
08 18:15 Calm 10.00 Mostly Cloudy BKN095 70.9 33.8 26% 29.83 0.0
08 17:55 S 3 10.00 Mostly Cloudy BKN095 72.1 34.7 25% 29.83 0.0
08 17:35 Calm 10.00 Partly Cloudy SCT095 71.8 34.5 26% 29.84 0.0
08 17:15 W 5 10.00 Partly Cloudy SCT120 70.7 34.5 26% 29.84 0.0
08 16:55 NW 9 10.00 Mostly Cloudy SCT095 BKN120 72.9 34.7 25% 29.84 0.0
08 16:35 W 7 10.00 Overcast OVC095 71.6 35.8 27% 29.84 0.0
08 16:15 W 10 G 20 10.00 Mostly Cloudy BKN095 69.1 33.6 27% 29.86 0.0
08 15:55 S 8 10.00 Partly Cloudy SCT095 69.8 34.5 27% 29.86 0.0
08 15:35 S 3 10.00 Mostly Cloudy BKN095 68.7 33.8 28% 29.87 0.0
08 15:15 W 6 10.00 Mostly Cloudy BKN095 69.3 34.3 28% 29.88 0.0
08 14:55 S 8 10.00 Mostly Cloudy BKN095 68.9 34.5 28% 29.89 0.0
08 14:35 SW 8 G 17 10.00 Mostly Cloudy SCT085 BKN120 70 36.7 30% 29.9 0.0
08 14:15 SW 8 G 17 10.00 Partly Cloudy SCT085 SCT120 68 34.2 29% 29.91 0.0
08 13:55 W 7 G 16 10.00 Partly Cloudy SCT085 68.2 35.6 68.2 48.7 30% 29.91 0.0
08 13:35 SW 3 10.00 Partly Cloudy SCT075 SCT100 67.5 36.1 32% 29.93 0.0
08 13:15 W 6 G 20 10.00 Partly Cloudy SCT075 66.9 33.6 29% 29.93 0.0
08 12:55 SW 9 G 20 10.00 Partly Cloudy SCT075 66.7 36 32% 29.94 0.0
08 12:35 W 9 10.00 Partly Cloudy SCT075 65.3 34.7 32% 29.95 0.0
08 12:15 W 13 G 18 10.00 Partly Cloudy SCT075 64.6 34.9 33% 29.95 0.0
08 11:55 W 8 G 16 10.00 Fair CLR 65.3 35.4 33% 29.96 0.0
08 11:35 W 14 G 17 10.00 Fair CLR 64.9 36 34% 29.96 0.0
08 11:15 SW 7 10.00 Fair CLR 63.7 35.6 35% 29.97 0.0
08 10:55 SW 9 10.00 Fair CLR 63.7 36.9 37% 29.97 0.0
08 10:35 SW 10 G 16 10.00 Fair CLR 61.7 35.8 38% 29.98 0.0
08 10:15 SW 7 10.00 Fair CLR 60.3 36.7 42% 29.98 0.0
08 09:55 S 7 10.00 Fair CLR 58.1 37.6 47% 29.98 0.0
08 09:35 SW 6 10.00 Fair CLR 56.5 38.1 50% 29.99 0.0
08 09:15 S 7 10.00 Fair CLR 54.5 37.6 53% 29.99 0.0
08 08:55 SW 6 10.00 Partly Cloudy SCT080 52.5 37 56% 29.99 0.0
08 08:35 S 6 10.00 Mostly Cloudy BKN080 50.7 37.4 60% 30 0.0
08 08:15 S 7 10.00 Partly Cloudy SCT080 50 36.7 60% 48 29.99 0.0
08 07:55 S 7 10.00 Partly Cloudy SCT080 48.4 36.5 52.9 41.5 64% 46 29.99 0.0
08 07:35 SW 7 10.00 Fair CLR 46.9 36 66% 44 29.99 0.0
08 07:15 S 6 10.00 Fair CLR 45.7 35.8 68% 43 29.98 0.0
08 06:55 SW 5 10.00 Fair CLR 43.7 35.4 73% 42 29.97 0.0
08 06:35 S 7 10.00 Fair CLR 42.6 35.1 75% 39 29.96 0.0
08 06:15 S 6 10.00 Fair CLR 42.8 34.5 73% 40 29.96 0.0
08 05:55 S 3 10.00 Fair CLR 42.3 34.2 73% 29.95 0.0
08 05:35 S 5 10.00 Fair CLR 43.2 34.2 71% 41 29.95 0.0
08 05:15 S 6 10.00 Fair CLR 43 34 71% 40 29.94 0.0
08 04:55 Calm 10.00 Fair CLR 45.3 32.5 61% 29.94 0.0
08 04:35 Calm 10.00 Fair CLR 44.8 32.5 62% 29.94 0.0
08 04:15 Calm 10.00 Fair CLR 45.5 32.2 60% 29.94 0.0
08 03:55 Calm 10.00 Fair CLR 45.7 32.5 60% 29.94 0.0
08 03:35 Calm 10.00 Fair CLR 46.2 32.2 58% 29.93 0.0
08 03:15 Calm 10.00 Fair CLR 47.1 33.4 59% 29.93 0.0
08 02:55 Calm 10.00 Fair CLR 50.5 32 49% 29.92 0.0
08 02:35 W 5 10.00 Fair CLR 51.6 31.8 47% 29.92 0.0
08 02:15 NW 5 10.00 Fair CLR 51.8 32 47% 29.92 0.0
08 01:55 W 5 10.00 Fair CLR 52.7 32 59.9 52.3 45% 29.92 0.0
08 01:35 W 6 10.00 Fair CLR 52.3 32 46% 29.92 0.0
08 01:15 W 6 10.00 Fair CLR 53.4 32 44% 29.91 0.0
08 00:55 NW 6 10.00 Fair CLR 54.3 32 43% 29.91 0.0
08 00:35 NW 3 10.00 Fair CLR 54.3 32 43% 29.9 0.0
08 00:15 W 6 10.00 Fair CLR 54.9 32 42% 29.89 0.0
07 23:55 W 6 10.00 Fair CLR 55 32.2 42% 29.88 0.0
07 23:35 W 9 G 16 10.00 Fair CLR 56.1 32 40% 29.87 0.0
07 23:15 W 7 10.00 Fair CLR 56.1 32 40% 29.87 0.0
07 22:55 W 9 10.00 Fair CLR 57.7 31.8 38% 29.86 0.0
07 22:35 W 12 G 17 10.00 Fair CLR 59 31.5 35% 29.86 0.0
07 22:15 W 10 G 16 10.00 Fair CLR 58.8 31.8 36% 29.86 0.0
07 21:55 W 8 10.00 Fair CLR 58.1 32.4 38% 29.85 0.0
07 21:35 W 8 10.00 Fair CLR 58.8 33.1 38% 29.84 0.0
07 21:15 NW 5 10.00 Fair CLR 58.6 34.2 40% 29.83 0.0
07 20:55 NW 5 10.00 Fair CLR 58.8 35.6 42% 29.82 0.0
07 20:35 NW 3 10.00 Fair CLR 58.1 41.5 54% 29.81 0.0
07 20:15 N 3 10.00 Fair CLR 59 47.1 65% 29.8 0.0
07 19:55 Calm 10.00 Partly Cloudy SCT090 60.4 47.3 68.4 60.4 62% 29.79 0.0
07 19:35 NE 5 10.00 Partly Cloudy SCT090 61.3 47.7 61% 29.78 0.0
07 19:15 NE 3 10.00 Fair CLR 63.9 47.3 55% 29.77 0.0
07 18:55 Calm 10.00 Partly Cloudy SCT090 64.8 47.3 53% 29.76 0.0
07 18:35 S 3 10.00 Partly Cloudy SCT090 64.9 47.1 53% 29.75 0.0
07 18:15 S 3 10.00 Partly Cloudy SCT085 65.5 46.9 51% 29.75 0.0
07 17:55 Calm 10.00 Mostly Cloudy BKN085 65.5 46.9 51% 29.74 0.0
07 17:35 Calm 10.00 Mostly Cloudy BKN085 64.2 46 52% 29.74 0.0
07 17:15 SE 5 10.00 Mostly Cloudy BKN080 65.1 44.8 48% 29.74 0.0
07 16:35 Calm 10.00 Partly Cloudy SCT085 66 42.6 43% 29.74 0.0
07 16:15 Calm 10.00 Mostly Cloudy SCT070 BKN080 66.2 41.7 41% 29.75 0.0
Date Time (edt) Wind (mph) Vis. (mi.) Weather Sky Cond. Air Dwpt Max. Min. Relative Humidity Wind Chill (°F) Heat Index (°F) altimeter (in) sea level (mb) 1 hr 3 hr 6 hr
6 hour
Temperature (ºF) Pressure Precipitation (in)